createdAt,value
2018-08-28T00:01:19.987Z,17.93
2018-08-28T00:03:48.075Z,17.91
2018-08-28T00:06:16.137Z,17.89
2018-08-28T00:08:44.187Z,17.88
2018-08-28T00:11:12.299Z,17.89
2018-08-28T00:13:40.373Z,17.89
2018-08-28T00:16:08.443Z,17.93
2018-08-28T00:18:36.520Z,17.96
2018-08-28T00:21:04.840Z,17.95
2018-08-28T00:23:32.904Z,17.96
2018-08-28T00:26:01.115Z,17.93
2018-08-28T00:28:29.171Z,17.91
2018-08-28T00:30:57.245Z,17.96
2018-08-28T00:33:25.454Z,17.94
2018-08-28T00:35:53.530Z,17.92
2018-08-28T00:38:21.583Z,17.93
2018-08-28T00:40:49.683Z,17.92
2018-08-28T00:43:17.755Z,17.94
2018-08-28T00:45:45.982Z,17.92
2018-08-28T00:48:14.029Z,17.91
2018-08-28T00:50:42.072Z,17.92
2018-08-28T00:53:10.279Z,17.95
2018-08-28T00:55:38.359Z,17.98
2018-08-28T00:58:06.456Z,17.95
2018-08-28T01:00:34.659Z,17.95
2018-08-28T01:03:02.723Z,17.96
2018-08-28T01:05:30.778Z,17.99
2018-08-28T01:07:58.846Z,17.95
2018-08-28T01:10:26.899Z,17.91
2018-08-28T01:12:54.958Z,17.93
2018-08-28T01:15:23.014Z,17.89
2018-08-28T01:17:51.074Z,17.88
2018-08-28T01:20:19.120Z,17.90
2018-08-28T01:22:47.168Z,17.92
2018-08-28T01:25:15.303Z,17.92
2018-08-28T01:27:43.355Z,17.88
2018-08-28T01:30:11.416Z,17.90
2018-08-28T01:32:39.666Z,17.90
2018-08-28T01:35:07.739Z,17.91
2018-08-28T01:37:35.818Z,17.87
2018-08-28T01:40:04.962Z,17.87
2018-08-28T01:42:33.018Z,17.87
2018-08-28T01:45:01.082Z,17.86
2018-08-28T01:47:29.287Z,17.84
2018-08-28T01:49:57.347Z,17.84
2018-08-28T01:52:25.411Z,17.82
2018-08-28T01:54:53.462Z,17.80
2018-08-28T01:57:21.533Z,17.84
2018-08-28T01:59:49.596Z,17.83
2018-08-28T02:02:17.666Z,17.84
2018-08-28T02:04:45.731Z,17.84
2018-08-28T02:07:13.794Z,17.82
2018-08-28T02:09:41.849Z,17.77
2018-08-28T02:12:09.910Z,17.77
2018-08-28T02:14:38.012Z,17.84
2018-08-28T02:17:06.138Z,17.84
2018-08-28T02:19:34.238Z,17.84
2018-08-28T02:22:02.287Z,17.85
2018-08-28T02:24:30.343Z,17.86
2018-08-28T02:26:58.454Z,17.86
2018-08-28T02:29:26.526Z,17.86
2018-08-28T02:31:54.619Z,17.85
2018-08-28T02:34:22.706Z,17.82
2018-08-28T02:36:50.766Z,17.84
2018-08-28T02:39:18.817Z,17.88
2018-08-28T02:41:46.883Z,17.90
2018-08-28T02:44:14.942Z,17.90
2018-08-28T02:46:43.179Z,17.86
2018-08-28T02:49:11.228Z,17.82
2018-08-28T02:51:39.322Z,17.78
2018-08-28T02:54:07.597Z,17.76
2018-08-28T02:56:35.651Z,17.77
2018-08-28T02:59:03.854Z,17.77
2018-08-28T03:01:31.913Z,17.79
2018-08-28T03:03:59.982Z,17.78
2018-08-28T03:06:28.046Z,17.77
2018-08-28T03:08:56.150Z,17.79
2018-08-28T03:11:24.249Z,17.81
2018-08-28T03:13:52.278Z,17.83
2018-08-28T03:16:20.395Z,17.82
2018-08-28T03:18:48.458Z,17.81
2018-08-28T03:21:16.674Z,17.82
2018-08-28T03:23:44.766Z,17.79
2018-08-28T03:26:12.831Z,17.82
2018-08-28T03:28:40.913Z,17.78
2018-08-28T03:31:08.982Z,17.78
2018-08-28T03:33:37.047Z,17.78
2018-08-28T03:36:05.111Z,17.78
2018-08-28T03:38:33.392Z,17.79
2018-08-28T03:41:01.490Z,17.81
2018-08-28T03:43:29.543Z,17.82
2018-08-28T03:45:57.658Z,17.84
2018-08-28T03:48:25.855Z,17.84
2018-08-28T03:50:53.983Z,17.83
2018-08-28T03:53:22.203Z,17.81
2018-08-28T03:55:50.332Z,17.83
2018-08-28T03:58:18.586Z,17.82
2018-08-28T04:00:46.660Z,17.83
2018-08-28T04:03:14.706Z,17.80
2018-08-28T04:05:42.858Z,17.81
2018-08-28T04:08:10.914Z,17.82
2018-08-28T04:10:39.018Z,17.86
2018-08-28T04:13:07.146Z,17.85
2018-08-28T04:15:35.231Z,17.84
2018-08-28T04:18:03.283Z,17.86
2018-08-28T04:20:31.399Z,17.88
2018-08-28T04:22:59.445Z,17.88
2018-08-28T04:25:27.537Z,17.87
2018-08-28T04:27:55.763Z,17.85
2018-08-28T04:30:23.870Z,17.84
2018-08-28T04:32:52.031Z,17.84
2018-08-28T04:35:20.360Z,17.84
2018-08-28T04:37:48.442Z,17.84
2018-08-28T04:40:16.689Z,17.81
2018-08-28T04:42:44.755Z,17.84
2018-08-28T04:45:12.925Z,17.83
2018-08-28T04:47:40.994Z,17.83
2018-08-28T04:50:09.057Z,17.82
2018-08-28T04:52:37.987Z,17.84
2018-08-28T04:55:06.533Z,17.86
2018-08-28T04:57:34.627Z,17.80
2018-08-28T05:00:02.667Z,17.79
2018-08-28T05:02:35.770Z,17.78
2018-08-28T05:05:05.572Z,17.79
2018-08-28T05:07:33.758Z,17.81
2018-08-28T05:10:01.871Z,17.81
2018-08-28T05:12:30.023Z,17.80
2018-08-28T05:14:58.859Z,17.84
2018-08-28T05:17:26.922Z,17.86
2018-08-28T05:19:55.227Z,17.83
2018-08-28T05:22:23.999Z,17.83
2018-08-28T05:24:52.546Z,17.82
2018-08-28T05:27:21.934Z,17.82
2018-08-28T05:29:50.205Z,17.86
2018-08-28T05:32:18.255Z,17.89
2018-08-28T05:34:46.938Z,17.90
2018-08-28T05:37:15.088Z,17.89
2018-08-28T05:39:43.142Z,17.90
2018-08-28T05:42:11.231Z,17.91
2018-08-28T05:44:39.342Z,17.96
2018-08-28T05:47:07.429Z,18.01
2018-08-28T05:49:35.637Z,18.02
2018-08-28T05:52:04.779Z,18.00
2018-08-28T05:54:32.851Z,17.98
2018-08-28T05:57:01.041Z,17.99
2018-08-28T05:59:29.114Z,18.02
2018-08-28T06:01:57.228Z,18.06
2018-08-28T06:04:25.340Z,18.06
2018-08-28T06:06:53.595Z,18.09
2018-08-28T06:09:21.684Z,18.16
2018-08-28T06:11:49.802Z,18.20
2018-08-28T06:14:17.894Z,18.24
2018-08-28T06:16:46.291Z,18.26
2018-08-28T06:19:14.393Z,18.24
2018-08-28T06:21:42.476Z,18.27
2018-08-28T06:24:11.114Z,18.29
2018-08-28T06:26:39.275Z,18.31
2018-08-28T06:29:07.588Z,18.35
2018-08-28T06:31:35.735Z,18.36
2018-08-28T06:34:03.846Z,18.39
2018-08-28T06:36:31.907Z,18.44
2018-08-28T06:39:00.458Z,18.48
2018-08-28T06:41:28.563Z,18.49
2018-08-28T06:43:56.707Z,18.48
2018-08-28T06:46:24.715Z,18.48
2018-08-28T06:48:52.854Z,18.54
2018-08-28T06:51:21.161Z,18.58
2018-08-28T06:53:49.588Z,18.60
2018-08-28T06:56:17.911Z,18.58
2018-08-28T06:58:46.008Z,18.60
2018-08-28T07:01:14.328Z,18.63
2018-08-28T07:03:42.513Z,18.64
2018-08-28T07:06:10.814Z,18.68
2018-08-28T07:08:38.935Z,18.71
2018-08-28T07:11:07.343Z,18.70
2018-08-28T07:13:35.437Z,18.75
2018-08-28T07:16:03.715Z,18.75
2018-08-28T07:18:32.102Z,18.80
2018-08-28T07:21:00.195Z,18.86
2018-08-28T07:23:28.313Z,18.90
2018-08-28T07:25:56.508Z,18.90
2018-08-28T07:28:24.515Z,18.94
2018-08-28T07:30:52.776Z,18.95
2018-08-28T07:33:21.195Z,18.98
2018-08-28T07:35:49.282Z,19.03
2018-08-28T07:38:17.850Z,19.10
2018-08-28T07:40:45.967Z,19.14
2018-08-28T07:43:14.119Z,19.24
2018-08-28T07:45:42.233Z,19.32
2018-08-28T07:48:10.474Z,19.33
2018-08-28T07:50:38.623Z,19.34
2018-08-28T07:53:06.711Z,19.36
2018-08-28T07:55:34.995Z,19.42
2018-08-28T07:58:03.127Z,19.50
2018-08-28T08:00:31.241Z,19.54
2018-08-28T08:02:59.790Z,19.58
2018-08-28T08:05:27.886Z,19.62
2018-08-28T08:07:55.990Z,19.68
2018-08-28T08:10:24.127Z,19.76
2018-08-28T08:12:52.204Z,19.84
2018-08-28T08:15:20.315Z,19.95
2018-08-28T08:17:48.459Z,20.04
2018-08-28T08:20:16.547Z,20.13
2018-08-28T08:22:44.655Z,20.16
2018-08-28T08:25:12.762Z,20.18
2018-08-28T08:27:41.176Z,20.23
2018-08-28T08:30:09.355Z,20.30
2018-08-28T08:32:37.444Z,20.36
2018-08-28T08:35:06.531Z,20.45
2018-08-28T08:37:34.932Z,20.57
2018-08-28T08:40:03.031Z,20.66
2018-08-28T08:42:31.123Z,20.67
2018-08-28T08:44:59.520Z,20.70
2018-08-28T08:47:27.598Z,20.67
2018-08-28T08:49:55.689Z,20.73
2018-08-28T08:52:23.835Z,20.77
2018-08-28T08:54:51.964Z,20.76
2018-08-28T08:57:20.041Z,20.76
2018-08-28T08:59:48.126Z,20.78
2018-08-28T09:02:16.271Z,20.85
2018-08-28T09:04:44.359Z,20.89
2018-08-28T09:07:12.745Z,20.91
2018-08-28T09:09:40.843Z,20.90
2018-08-28T09:12:15.628Z,20.85
2018-08-28T09:14:43.720Z,20.84
2018-08-28T09:17:11.818Z,20.87
2018-08-28T09:19:40.045Z,20.91
2018-08-28T09:22:08.170Z,20.89
2018-08-28T09:24:36.336Z,20.96
2018-08-28T09:27:04.787Z,20.95
2018-08-28T09:29:33.059Z,20.96
2018-08-28T09:32:01.196Z,21.06
2018-08-28T09:34:29.511Z,21.10
2018-08-28T09:36:57.592Z,21.18
2018-08-28T09:39:25.695Z,21.21
2018-08-28T09:41:53.807Z,21.23
2018-08-28T09:44:22.667Z,21.30
2018-08-28T09:46:50.775Z,21.33
2018-08-28T09:49:18.864Z,21.34
2018-08-28T09:51:46.976Z,21.36
2018-08-28T09:54:15.068Z,21.44
2018-08-28T09:56:43.220Z,21.43
2018-08-28T09:59:11.444Z,21.44
2018-08-28T10:01:45.027Z,21.43
2018-08-28T10:04:14.268Z,21.48
2018-08-28T10:06:42.435Z,21.58
2018-08-28T10:09:13.114Z,21.61
2018-08-28T10:11:41.902Z,21.65
2018-08-28T10:14:10.755Z,21.76
2018-08-28T10:16:39.039Z,21.86
2018-08-28T10:19:07.650Z,21.87
2018-08-28T10:21:36.131Z,21.90
2018-08-28T10:24:04.444Z,21.93
2018-08-28T10:26:33.099Z,21.99
2018-08-28T10:29:01.387Z,22.06
2018-08-28T10:31:29.564Z,22.08
2018-08-28T10:33:57.822Z,22.12
2018-08-28T10:36:26.087Z,22.20
2018-08-28T10:38:54.183Z,22.30
2018-08-28T10:41:22.746Z,22.43
2018-08-28T10:43:50.856Z,22.51
2018-08-28T10:46:19.067Z,22.58
2018-08-28T10:48:47.578Z,22.69
2018-08-28T10:51:16.584Z,22.86
2018-08-28T10:53:45.243Z,22.94
2018-08-28T10:56:13.340Z,23.07
2018-08-28T10:58:41.469Z,23.21
2018-08-28T11:01:09.772Z,23.29
2018-08-28T11:03:37.946Z,23.26
2018-08-28T11:06:06.026Z,23.32
2018-08-28T11:08:34.139Z,23.27
2018-08-28T11:11:02.208Z,23.31
2018-08-28T11:13:30.329Z,23.31
2018-08-28T11:15:58.417Z,23.34
2018-08-28T11:18:26.530Z,23.36
2018-08-28T11:20:54.753Z,23.42
2018-08-28T11:23:23.066Z,23.43
2018-08-28T11:25:51.406Z,23.50
2018-08-28T11:28:19.531Z,23.49
2018-08-28T11:30:47.635Z,23.40
2018-08-28T11:33:16.031Z,23.33
2018-08-28T11:35:44.210Z,23.26
2018-08-28T11:38:12.258Z,23.22
2018-08-28T11:40:40.747Z,23.25
2018-08-28T11:43:08.844Z,23.35
2018-08-28T11:45:37.288Z,23.39
2018-08-28T11:48:06.007Z,23.48
2018-08-28T11:50:34.119Z,23.48
2018-08-28T11:53:02.384Z,23.49
2018-08-28T11:55:31.047Z,23.52
2018-08-28T11:57:59.103Z,23.59
2018-08-28T12:00:27.211Z,23.74
2018-08-28T12:02:55.300Z,23.97
2018-08-28T12:05:23.559Z,24.15
2018-08-28T12:07:52.626Z,24.24
2018-08-28T12:10:20.778Z,24.23
2018-08-28T12:12:48.851Z,24.15
2018-08-28T12:15:16.922Z,24.12
2018-08-28T12:17:45.155Z,24.30
2018-08-28T12:20:13.241Z,24.47
2018-08-28T12:22:41.324Z,24.47
2018-08-28T12:25:10.134Z,24.38
2018-08-28T12:27:38.408Z,24.46
2018-08-28T12:30:07.328Z,24.53
2018-08-28T12:32:35.396Z,24.52
2018-08-28T12:35:03.471Z,24.77
2018-08-28T12:37:31.560Z,25.15
2018-08-28T12:39:59.782Z,25.21
2018-08-28T12:42:27.859Z,25.28
2018-08-28T12:44:56.166Z,25.41
2018-08-28T12:47:24.530Z,25.52
2018-08-28T12:49:52.615Z,25.58
2018-08-28T12:52:20.962Z,25.49
2018-08-28T12:54:49.108Z,25.42
2018-08-28T12:57:17.373Z,25.43
2018-08-28T12:59:45.630Z,25.30
2018-08-28T13:02:14.060Z,25.24
2018-08-28T13:04:42.050Z,25.25
2018-08-28T13:07:10.355Z,25.21
2018-08-28T13:09:38.373Z,25.06
2018-08-28T13:12:06.477Z,24.97
2018-08-28T13:14:34.861Z,24.96
2018-08-28T13:17:02.910Z,24.97
2018-08-28T13:19:31.008Z,25.01
2018-08-28T13:21:59.109Z,25.02
2018-08-28T13:24:27.195Z,25.05
2018-08-28T13:26:55.332Z,25.04
2018-08-28T13:29:23.602Z,25.04
2018-08-28T13:31:51.702Z,24.98
2018-08-28T13:34:19.787Z,24.96
2018-08-28T13:36:47.891Z,24.96
2018-08-28T13:39:16.198Z,24.96
2018-08-28T13:41:44.628Z,24.91
2018-08-28T13:44:13.623Z,24.88
2018-08-28T13:46:41.708Z,24.85
2018-08-28T13:49:09.810Z,24.80
2018-08-28T13:51:38.353Z,24.78
2018-08-28T13:54:06.479Z,24.81
2018-08-28T13:56:34.559Z,24.82
2018-08-28T13:59:03.066Z,24.83
2018-08-28T14:01:31.164Z,24.92
2018-08-28T14:03:59.236Z,25.00
2018-08-28T14:06:27.416Z,25.04
2018-08-28T14:08:55.496Z,25.06
2018-08-28T14:11:23.637Z,24.97
2018-08-28T14:13:51.802Z,24.95
2018-08-28T14:16:19.803Z,25.00
2018-08-28T14:18:48.386Z,24.95
2018-08-28T14:21:16.449Z,24.91
2018-08-28T14:23:44.571Z,24.92
2018-08-28T14:26:12.688Z,24.92
2018-08-28T14:28:40.836Z,24.92
2018-08-28T14:31:09.072Z,24.96
2018-08-28T14:33:37.151Z,24.96
2018-08-28T14:36:05.508Z,24.85
2018-08-28T14:38:33.887Z,24.77
2018-08-28T14:41:01.997Z,24.76
2018-08-28T14:43:30.245Z,24.74
2018-08-28T14:45:58.328Z,24.79
2018-08-28T14:48:26.425Z,24.81
2018-08-28T14:50:54.517Z,24.88
2018-08-28T14:53:23.557Z,24.91
2018-08-28T14:55:51.644Z,24.94
2018-08-28T14:58:19.724Z,24.96
2018-08-28T15:00:47.827Z,24.96
2018-08-28T15:03:15.934Z,24.92
2018-08-28T15:05:44.082Z,24.95
2018-08-28T15:08:12.218Z,25.00
2018-08-28T15:10:40.345Z,25.02
2018-08-28T15:13:08.441Z,25.08
2018-08-28T15:15:36.752Z,25.14
2018-08-28T15:18:04.852Z,25.13
2018-08-28T15:20:32.967Z,25.04
2018-08-28T15:23:01.232Z,25.02
2018-08-28T15:25:29.288Z,25.05
2018-08-28T15:27:57.376Z,25.11
2018-08-28T15:30:25.482Z,25.13
2018-08-28T15:32:53.657Z,25.17
2018-08-28T15:35:21.743Z,25.19
2018-08-28T15:37:49.860Z,25.22
2018-08-28T15:40:17.994Z,25.24
2018-08-28T15:42:46.172Z,25.20
2018-08-28T15:45:14.262Z,25.18
2018-08-28T15:47:42.343Z,25.15
2018-08-28T15:50:10.437Z,25.09
2018-08-28T15:52:38.532Z,25.04
2018-08-28T15:55:06.645Z,24.99
2018-08-28T15:57:34.756Z,24.89
2018-08-28T16:00:02.879Z,24.90
2018-08-28T16:02:30.961Z,24.91
2018-08-28T16:04:59.122Z,24.91
2018-08-28T16:07:27.208Z,24.86
2018-08-28T16:09:55.291Z,24.81
2018-08-28T16:12:23.750Z,24.81
2018-08-28T16:14:52.055Z,24.75
2018-08-28T16:17:20.146Z,24.71
2018-08-28T16:19:48.224Z,24.67
2018-08-28T16:22:20.429Z,24.62
2018-08-28T16:24:48.673Z,24.64
2018-08-28T16:27:16.794Z,24.66
2018-08-28T16:29:45.083Z,24.63
2018-08-28T16:32:13.134Z,24.58
2018-08-28T16:34:41.446Z,24.56
2018-08-28T16:37:09.998Z,24.51
2018-08-28T16:39:38.079Z,24.51
2018-08-28T16:42:06.088Z,24.46
2018-08-28T16:44:34.680Z,24.36
2018-08-28T16:47:02.810Z,24.31
2018-08-28T16:49:31.153Z,24.22
2018-08-28T16:52:05.488Z,24.15
2018-08-28T16:54:33.767Z,24.14
2018-08-28T16:57:01.877Z,24.10
2018-08-28T16:59:29.954Z,24.05
2018-08-28T17:01:58.052Z,23.96
2018-08-28T17:04:26.099Z,23.90
2018-08-28T17:06:54.198Z,23.88
2018-08-28T17:09:22.425Z,23.83
2018-08-28T17:11:50.496Z,23.77
2018-08-28T17:14:18.588Z,23.71
2018-08-28T17:16:46.806Z,23.64
2018-08-28T17:19:14.956Z,23.57
2018-08-28T17:21:42.979Z,23.51
2018-08-28T17:24:11.234Z,23.45
2018-08-28T17:26:39.309Z,23.38
2018-08-28T17:29:07.394Z,23.32
2018-08-28T17:34:02.604Z,23.21
2018-08-28T17:36:30.793Z,23.15
2018-08-28T17:38:58.882Z,23.09
2018-08-28T17:41:26.943Z,22.98
2018-08-28T17:43:55.167Z,22.90
2018-08-28T17:46:23.252Z,22.86
2018-08-28T17:48:51.379Z,22.80
2018-08-28T17:51:19.420Z,22.74
2018-08-28T17:53:47.499Z,22.67
2018-08-28T17:56:15.579Z,22.61
2018-08-28T17:58:43.810Z,22.55
2018-08-28T18:01:11.984Z,22.47
2018-08-28T18:03:40.039Z,22.41
2018-08-28T18:06:08.129Z,22.34
2018-08-28T18:08:36.191Z,22.25
2018-08-28T18:11:04.664Z,22.19
2018-08-28T18:13:32.753Z,22.13
2018-08-28T18:16:00.863Z,22.06
2018-08-28T18:18:28.934Z,21.97
2018-08-28T18:20:57.044Z,21.88
2018-08-28T18:23:25.119Z,21.79
2018-08-28T18:25:53.205Z,21.71
2018-08-28T18:28:21.293Z,21.63
2018-08-28T18:30:49.371Z,21.56
2018-08-28T18:33:17.450Z,21.49
2018-08-28T18:35:45.555Z,21.43
2018-08-28T18:38:14.134Z,21.34
2018-08-28T18:40:42.218Z,21.26
2018-08-28T18:43:10.347Z,21.18
2018-08-28T18:45:38.429Z,21.11
2018-08-28T18:48:06.499Z,21.05
2018-08-28T18:50:34.615Z,20.96
2018-08-28T18:53:02.686Z,20.88
2018-08-28T18:55:30.994Z,20.81
2018-08-28T18:57:59.077Z,20.74
2018-08-28T19:00:27.154Z,20.65
2018-08-28T19:02:55.332Z,20.58
2018-08-28T19:05:23.389Z,20.52
2018-08-28T19:07:51.506Z,20.46
2018-08-28T19:10:19.533Z,20.40
2018-08-28T19:12:47.780Z,20.33
2018-08-28T19:15:15.874Z,20.28
2018-08-28T19:17:43.966Z,20.23
2018-08-28T19:20:12.051Z,20.17
2018-08-28T19:22:40.171Z,20.12
2018-08-28T19:25:08.288Z,20.06
2018-08-28T19:27:36.374Z,20.01
2018-08-28T19:30:04.676Z,19.95
2018-08-28T19:32:32.911Z,19.88
2018-08-28T19:35:01.056Z,19.83
2018-08-28T19:37:29.231Z,19.78
2018-08-28T19:39:57.348Z,19.73
2018-08-28T19:42:25.436Z,19.68
2018-08-28T19:44:53.509Z,19.63
2018-08-28T19:47:21.707Z,19.60
2018-08-28T19:49:49.790Z,19.56
2018-08-28T19:52:17.853Z,19.52
2018-08-28T19:54:45.966Z,19.47
2018-08-28T19:57:14.210Z,19.42
2018-08-28T19:59:42.325Z,19.35
2018-08-28T20:02:10.475Z,19.34
2018-08-28T20:04:38.733Z,19.31
2018-08-28T20:07:06.844Z,19.26
2018-08-28T20:09:34.920Z,19.25
2018-08-28T20:12:03.159Z,19.20
2018-08-28T20:14:31.284Z,19.17
2018-08-28T20:16:59.382Z,19.14
2018-08-28T20:19:27.476Z,19.11
2018-08-28T20:21:55.559Z,19.07
2018-08-28T20:24:23.624Z,19.03
2018-08-28T20:26:51.905Z,18.99
2018-08-28T20:29:19.958Z,18.95
2018-08-28T20:31:48.047Z,18.91
2018-08-28T20:34:16.134Z,18.88
2018-08-28T20:36:44.441Z,18.83
2018-08-28T20:39:12.524Z,18.79
2018-08-28T20:41:40.607Z,18.74
2018-08-28T20:44:08.686Z,18.69
2018-08-28T20:46:36.748Z,18.64
2018-08-28T20:49:04.899Z,18.63
2018-08-28T20:51:33.031Z,18.60
2018-08-28T20:54:01.126Z,18.57
2018-08-28T20:56:29.193Z,18.54
2018-08-28T20:58:57.318Z,18.52
2018-08-28T21:01:25.403Z,18.47
2018-08-28T21:03:53.488Z,18.41
2018-08-28T21:06:21.729Z,18.36
2018-08-28T21:08:49.819Z,18.32
2018-08-28T21:11:17.894Z,18.28
2018-08-28T21:13:45.981Z,18.23
2018-08-28T21:16:14.058Z,18.19
2018-08-28T21:18:42.130Z,18.15
2018-08-28T21:21:10.231Z,18.11
2018-08-28T21:23:38.325Z,18.08
2018-08-28T21:26:06.605Z,18.05
2018-08-28T21:28:34.802Z,18.03
2018-08-28T21:31:02.881Z,18.00
2018-08-28T21:33:31.011Z,17.94
2018-08-28T21:35:59.234Z,17.93
2018-08-28T21:38:27.334Z,17.89
2018-08-28T21:40:55.411Z,17.86
2018-08-28T21:43:23.539Z,17.85
2018-08-28T21:45:51.606Z,17.81
2018-08-28T21:48:19.779Z,17.77
2018-08-28T21:50:47.766Z,17.76
2018-08-28T21:53:15.851Z,17.73
2018-08-28T21:55:44.094Z,17.71
2018-08-28T21:58:12.175Z,17.68
2018-08-28T22:00:40.244Z,17.64
2018-08-28T22:03:08.495Z,17.60
2018-08-28T22:05:36.562Z,17.57
2018-08-28T22:08:05.551Z,17.53
2018-08-28T22:10:33.873Z,17.50
2018-08-28T22:13:01.990Z,17.48
2018-08-28T22:15:30.090Z,17.46
2018-08-28T22:17:58.306Z,17.43
2018-08-28T22:20:26.385Z,17.41
2018-08-28T22:22:54.450Z,17.38
2018-08-28T22:25:22.665Z,17.36
2018-08-28T22:27:50.740Z,17.33
2018-08-28T22:30:18.810Z,17.30
2018-08-28T22:32:47.043Z,17.26
2018-08-28T22:35:15.111Z,17.21
2018-08-28T22:37:43.188Z,17.16
2018-08-28T22:40:12.186Z,17.15
2018-08-28T22:42:40.254Z,17.13
2018-08-28T22:45:08.320Z,17.09
2018-08-28T22:47:36.390Z,17.09
2018-08-28T22:50:05.888Z,17.05
2018-08-28T22:52:33.956Z,17.03
2018-08-28T22:55:02.135Z,17.00
2018-08-28T22:57:30.206Z,16.97
2018-08-28T22:59:58.278Z,16.92
2018-08-28T23:02:26.341Z,16.90
2018-08-28T23:04:54.446Z,16.88
2018-08-28T23:07:22.571Z,16.84
2018-08-28T23:09:50.662Z,16.78
2018-08-28T23:12:18.755Z,16.75
2018-08-28T23:14:46.839Z,16.72
2018-08-28T23:17:14.952Z,16.66
2018-08-28T23:19:43.042Z,16.61
2018-08-28T23:22:11.105Z,16.57
2018-08-28T23:24:39.231Z,16.54
2018-08-28T23:27:07.346Z,16.53
2018-08-28T23:29:35.592Z,16.50
2018-08-28T23:32:03.688Z,16.49
2018-08-28T23:34:31.751Z,16.47
2018-08-28T23:36:59.835Z,16.45
2018-08-28T23:39:27.899Z,16.44
2018-08-28T23:41:55.966Z,16.42
2018-08-28T23:44:24.068Z,16.41
2018-08-28T23:46:52.139Z,16.39
2018-08-28T23:49:20.205Z,16.35
2018-08-28T23:51:48.435Z,16.31
2018-08-28T23:54:16.538Z,16.29
2018-08-28T23:56:44.599Z,16.27
2018-08-28T23:59:12.712Z,16.26
